sensor_id;sensor_type;location;lat;lon;timestamp;P1;durP1;ratioP1;P2;durP2;ratioP2
50683;SDS011;36654;45.042;38.994;2023-06-14T00:02:17;16.00;;;8.00;;
50683;SDS011;36654;45.042;38.994;2023-06-14T00:04:43;17.27;;;8.00;;
50683;SDS011;36654;45.042;38.994;2023-06-14T00:07:08;17.08;;;9.13;;
50683;SDS011;36654;45.042;38.994;2023-06-14T00:09:37;18.70;;;8.80;;
50683;SDS011;36654;45.042;38.994;2023-06-14T00:12:03;14.25;;;8.15;;
50683;SDS011;36654;45.042;38.994;2023-06-14T00:14:28;14.20;;;8.38;;
50683;SDS011;36654;45.042;38.994;2023-06-14T00:16:54;13.27;;;7.82;;
50683;SDS011;36654;45.042;38.994;2023-06-14T00:19:23;15.35;;;7.78;;
50683;SDS011;36654;45.042;38.994;2023-06-14T00:21:52;19.38;;;8.35;;
50683;SDS011;36654;45.042;38.994;2023-06-14T00:24:18;19.45;;;8.70;;
50683;SDS011;36654;45.042;38.994;2023-06-14T00:26:43;14.30;;;8.32;;
50683;SDS011;36654;45.042;38.994;2023-06-14T00:29:09;15.85;;;8.68;;
50683;SDS011;36654;45.042;38.994;2023-06-14T00:31:35;15.57;;;8.55;;
50683;SDS011;36654;45.042;38.994;2023-06-14T00:34:00;19.40;;;8.82;;
50683;SDS011;36654;45.042;38.994;2023-06-14T00:36:26;15.32;;;8.32;;
50683;SDS011;36654;45.042;38.994;2023-06-14T00:38:52;19.05;;;8.50;;
50683;SDS011;36654;45.042;38.994;2023-06-14T00:41:17;20.25;;;9.73;;
50683;SDS011;36654;45.042;38.994;2023-06-14T00:43:43;20.85;;;9.45;;
50683;SDS011;36654;45.042;38.994;2023-06-14T00:46:09;12.70;;;8.65;;
50683;SDS011;36654;45.042;38.994;2023-06-14T00:48:35;15.15;;;10.30;;
50683;SDS011;36654;45.042;38.994;2023-06-14T00:51:02;18.40;;;10.70;;
50683;SDS011;36654;45.042;38.994;2023-06-14T00:53:29;17.58;;;10.32;;
50683;SDS011;36654;45.042;38.994;2023-06-14T00:55:56;17.33;;;10.40;;
50683;SDS011;36654;45.042;38.994;2023-06-14T00:58:22;20.00;;;12.50;;
50683;SDS011;36654;45.042;38.994;2023-06-14T01:00:48;17.95;;;11.82;;
50683;SDS011;36654;45.042;38.994;2023-06-14T01:03:14;18.23;;;11.38;;
50683;SDS011;36654;45.042;38.994;2023-06-14T01:05:44;16.00;;;11.85;;
50683;SDS011;36654;45.042;38.994;2023-06-14T01:08:31;18.90;;;12.38;;
50683;SDS011;36654;45.042;38.994;2023-06-14T01:11:45;19.17;;;12.95;;
50683;SDS011;36654;45.042;38.994;2023-06-14T01:14:15;19.63;;;13.00;;
50683;SDS011;36654;45.042;38.994;2023-06-14T01:16:43;19.30;;;12.70;;
50683;SDS011;36654;45.042;38.994;2023-06-14T01:19:10;19.27;;;11.25;;
50683;SDS011;36654;45.042;38.994;2023-06-14T01:21:39;20.88;;;12.43;;
50683;SDS011;36654;45.042;38.994;2023-06-14T01:24:07;19.15;;;11.85;;
50683;SDS011;36654;45.042;38.994;2023-06-14T01:26:34;18.73;;;11.80;;
50683;SDS011;36654;45.042;38.994;2023-06-14T01:29:02;17.88;;;11.65;;
50683;SDS011;36654;45.042;38.994;2023-06-14T01:31:29;19.88;;;12.38;;
50683;SDS011;36654;45.042;38.994;2023-06-14T01:34:04;16.55;;;9.73;;
50683;SDS011;36654;45.042;38.994;2023-06-14T01:36:30;18.13;;;8.73;;
50683;SDS011;36654;45.042;38.994;2023-06-14T01:38:57;13.68;;;9.65;;
50683;SDS011;36654;45.042;38.994;2023-06-14T01:41:24;14.82;;;9.43;;
50683;SDS011;36654;45.042;38.994;2023-06-14T01:43:52;14.27;;;8.40;;
50683;SDS011;36654;45.042;38.994;2023-06-14T01:46:19;13.45;;;9.25;;
50683;SDS011;36654;45.042;38.994;2023-06-14T01:48:45;17.50;;;9.43;;
50683;SDS011;36654;45.042;38.994;2023-06-14T01:51:11;15.30;;;10.38;;
50683;SDS011;36654;45.042;38.994;2023-06-14T01:53:36;15.60;;;9.63;;
50683;SDS011;36654;45.042;38.994;2023-06-14T01:56:02;10.18;;;7.22;;
50683;SDS011;36654;45.042;38.994;2023-06-14T01:58:28;10.10;;;7.13;;
50683;SDS011;36654;45.042;38.994;2023-06-14T02:00:54;10.82;;;5.68;;
50683;SDS011;36654;45.042;38.994;2023-06-14T02:03:23;9.65;;;5.40;;
50683;SDS011;36654;45.042;38.994;2023-06-14T02:05:49;8.75;;;5.65;;
50683;SDS011;36654;45.042;38.994;2023-06-14T02:08:15;10.10;;;5.68;;
50683;SDS011;36654;45.042;38.994;2023-06-14T02:10:40;8.75;;;5.53;;
50683;SDS011;36654;45.042;38.994;2023-06-14T02:13:06;11.05;;;5.55;;
50683;SDS011;36654;45.042;38.994;2023-06-14T02:15:32;7.82;;;5.35;;
50683;SDS011;36654;45.042;38.994;2023-06-14T02:20:27;7.93;;;5.57;;
50683;SDS011;36654;45.042;38.994;2023-06-14T02:22:53;8.13;;;5.68;;
50683;SDS011;36654;45.042;38.994;2023-06-14T02:25:19;10.00;;;5.55;;
50683;SDS011;36654;45.042;38.994;2023-06-14T02:27:45;9.48;;;5.53;;
50683;SDS011;36654;45.042;38.994;2023-06-14T02:30:10;9.13;;;6.00;;
50683;SDS011;36654;45.042;38.994;2023-06-14T02:32:37;9.68;;;5.38;;
50683;SDS011;36654;45.042;38.994;2023-06-14T02:35:03;8.00;;;5.68;;
50683;SDS011;36654;45.042;38.994;2023-06-14T02:37:29;8.50;;;6.43;;
50683;SDS011;36654;45.042;38.994;2023-06-14T02:39:55;13.27;;;6.82;;
50683;SDS011;36654;45.042;38.994;2023-06-14T02:42:21;8.93;;;6.20;;
50683;SDS011;36654;45.042;38.994;2023-06-14T02:44:47;9.90;;;6.55;;
50683;SDS011;36654;45.042;38.994;2023-06-14T02:47:16;10.27;;;6.43;;
50683;SDS011;36654;45.042;38.994;2023-06-14T02:49:43;10.20;;;6.45;;
50683;SDS011;36654;45.042;38.994;2023-06-14T02:52:11;10.52;;;6.88;;
50683;SDS011;36654;45.042;38.994;2023-06-14T02:54:37;11.30;;;6.95;;
50683;SDS011;36654;45.042;38.994;2023-06-14T02:57:02;9.98;;;6.57;;
50683;SDS011;36654;45.042;38.994;2023-06-14T02:59:28;9.07;;;6.72;;
50683;SDS011;36654;45.042;38.994;2023-06-14T03:01:54;9.85;;;6.63;;
50683;SDS011;36654;45.042;38.994;2023-06-14T03:04:20;8.98;;;5.22;;
50683;SDS011;36654;45.042;38.994;2023-06-14T03:06:46;9.32;;;5.82;;
50683;SDS011;36654;45.042;38.994;2023-06-14T03:09:15;11.07;;;6.97;;
50683;SDS011;36654;45.042;38.994;2023-06-14T03:11:41;11.60;;;6.18;;
50683;SDS011;36654;45.042;38.994;2023-06-14T03:14:07;9.90;;;6.88;;
50683;SDS011;36654;45.042;38.994;2023-06-14T03:16:33;9.18;;;6.88;;
50683;SDS011;36654;45.042;38.994;2023-06-14T03:18:59;11.20;;;6.90;;
50683;SDS011;36654;45.042;38.994;2023-06-14T03:21:25;11.55;;;7.05;;
50683;SDS011;36654;45.042;38.994;2023-06-14T03:23:53;9.90;;;6.97;;
50683;SDS011;36654;45.042;38.994;2023-06-14T03:26:19;9.85;;;6.90;;
50683;SDS011;36654;45.042;38.994;2023-06-14T03:28:45;12.57;;;7.00;;
50683;SDS011;36654;45.042;38.994;2023-06-14T03:31:12;10.52;;;6.63;;
50683;SDS011;36654;45.042;38.994;2023-06-14T03:33:38;11.98;;;7.00;;
50683;SDS011;36654;45.042;38.994;2023-06-14T03:36:05;13.35;;;7.13;;
50683;SDS011;36654;45.042;38.994;2023-06-14T03:38:32;12.80;;;8.15;;
50683;SDS011;36654;45.042;38.994;2023-06-14T03:40:58;12.82;;;7.45;;
50683;SDS011;36654;45.042;38.994;2023-06-14T03:43:24;11.48;;;7.38;;
50683;SDS011;36654;45.042;38.994;2023-06-14T03:45:50;12.85;;;7.47;;
50683;SDS011;36654;45.042;38.994;2023-06-14T03:48:15;11.13;;;8.93;;
50683;SDS011;36654;45.042;38.994;2023-06-14T03:50:41;14.15;;;8.30;;
50683;SDS011;36654;45.042;38.994;2023-06-14T03:53:08;14.10;;;7.18;;
50683;SDS011;36654;45.042;38.994;2023-06-14T03:55:34;12.65;;;8.18;;
50683;SDS011;36654;45.042;38.994;2023-06-14T03:58:00;11.20;;;8.35;;
50683;SDS011;36654;45.042;38.994;2023-06-14T04:00:26;16.02;;;8.27;;
50683;SDS011;36654;45.042;38.994;2023-06-14T04:02:52;10.27;;;8.32;;
50683;SDS011;36654;45.042;38.994;2023-06-14T04:05:18;11.15;;;8.10;;
50683;SDS011;36654;45.042;38.994;2023-06-14T04:07:44;14.40;;;8.82;;
50683;SDS011;36654;45.042;38.994;2023-06-14T04:10:13;12.85;;;8.57;;
50683;SDS011;36654;45.042;38.994;2023-06-14T04:12:40;11.32;;;8.68;;
50683;SDS011;36654;45.042;38.994;2023-06-14T04:15:07;14.25;;;10.02;;
50683;SDS011;36654;45.042;38.994;2023-06-14T04:17:38;19.27;;;10.07;;
50683;SDS011;36654;45.042;38.994;2023-06-14T04:22:31;12.50;;;10.25;;
50683;SDS011;36654;45.042;38.994;2023-06-14T04:24:58;13.18;;;9.95;;
50683;SDS011;36654;45.042;38.994;2023-06-14T04:27:25;11.40;;;9.18;;
50683;SDS011;36654;45.042;38.994;2023-06-14T04:29:54;13.38;;;9.95;;
50683;SDS011;36654;45.042;38.994;2023-06-14T04:32:25;13.60;;;9.02;;
50683;SDS011;36654;45.042;38.994;2023-06-14T04:35:00;14.25;;;9.50;;
50683;SDS011;36654;45.042;38.994;2023-06-14T04:37:29;14.20;;;9.15;;
50683;SDS011;36654;45.042;38.994;2023-06-14T04:39:55;14.02;;;9.38;;
50683;SDS011;36654;45.042;38.994;2023-06-14T04:42:22;17.17;;;9.55;;
50683;SDS011;36654;45.042;38.994;2023-06-14T04:44:51;17.25;;;10.25;;
50683;SDS011;36654;45.042;38.994;2023-06-14T04:47:20;11.95;;;9.55;;
50683;SDS011;36654;45.042;38.994;2023-06-14T04:49:46;17.35;;;9.55;;
50683;SDS011;36654;45.042;38.994;2023-06-14T04:52:12;14.05;;;9.45;;
50683;SDS011;36654;45.042;38.994;2023-06-14T04:54:38;14.90;;;9.82;;
50683;SDS011;36654;45.042;38.994;2023-06-14T04:57:08;14.30;;;10.50;;
50683;SDS011;36654;45.042;38.994;2023-06-14T04:59:39;13.25;;;9.80;;
50683;SDS011;36654;45.042;38.994;2023-06-14T05:02:05;13.23;;;9.43;;
50683;SDS011;36654;45.042;38.994;2023-06-14T05:04:32;16.95;;;8.90;;
50683;SDS011;36654;45.042;38.994;2023-06-14T05:06:58;13.75;;;9.27;;
50683;SDS011;36654;45.042;38.994;2023-06-14T05:09:27;15.43;;;9.88;;
50683;SDS011;36654;45.042;38.994;2023-06-14T05:12:13;13.00;;;8.63;;
50683;SDS011;36654;45.042;38.994;2023-06-14T05:14:49;16.55;;;10.10;;
50683;SDS011;36654;45.042;38.994;2023-06-14T05:17:15;16.85;;;9.88;;
50683;SDS011;36654;45.042;38.994;2023-06-14T05:19:42;21.15;;;14.15;;
50683;SDS011;36654;45.042;38.994;2023-06-14T05:22:20;29.63;;;18.42;;
50683;SDS011;36654;45.042;38.994;2023-06-14T05:25:11;32.75;;;22.08;;
50683;SDS011;36654;45.042;38.994;2023-06-14T05:27:57;68.70;;;43.42;;
50683;SDS011;36654;45.042;38.994;2023-06-14T05:30:25;13.80;;;8.23;;
50683;SDS011;36654;45.042;38.994;2023-06-14T05:32:51;22.30;;;13.77;;
50683;SDS011;36654;45.042;38.994;2023-06-14T05:35:24;11.80;;;9.27;;
50683;SDS011;36654;45.042;38.994;2023-06-14T05:37:52;13.98;;;9.15;;
50683;SDS011;36654;45.042;38.994;2023-06-14T05:40:20;15.65;;;9.20;;
50683;SDS011;36654;45.042;38.994;2023-06-14T05:42:49;14.82;;;8.55;;
50683;SDS011;36654;45.042;38.994;2023-06-14T05:45:17;13.18;;;8.85;;
50683;SDS011;36654;45.042;38.994;2023-06-14T05:47:46;14.48;;;7.88;;
50683;SDS011;36654;45.042;38.994;2023-06-14T05:50:31;14.82;;;8.27;;
50683;SDS011;36654;45.042;38.994;2023-06-14T05:53:00;20.60;;;12.65;;
50683;SDS011;36654;45.042;38.994;2023-06-14T05:57:54;13.60;;;10.18;;
50683;SDS011;36654;45.042;38.994;2023-06-14T06:00:30;13.60;;;9.02;;
50683;SDS011;36654;45.042;38.994;2023-06-14T06:02:58;11.07;;;8.60;;
50683;SDS011;36654;45.042;38.994;2023-06-14T06:05:26;13.27;;;8.13;;
50683;SDS011;36654;45.042;38.994;2023-06-14T06:07:51;13.32;;;7.88;;
50683;SDS011;36654;45.042;38.994;2023-06-14T06:10:34;11.38;;;7.97;;
50683;SDS011;36654;45.042;38.994;2023-06-14T06:13:05;11.75;;;8.48;;
50683;SDS011;36654;45.042;38.994;2023-06-14T06:15:54;14.93;;;8.48;;
50683;SDS011;36654;45.042;38.994;2023-06-14T06:18:19;13.68;;;8.32;;
50683;SDS011;36654;45.042;38.994;2023-06-14T06:20:48;13.73;;;7.85;;
50683;SDS011;36654;45.042;38.994;2023-06-14T06:23:14;15.13;;;7.75;;
50683;SDS011;36654;45.042;38.994;2023-06-14T06:25:42;13.88;;;8.13;;
50683;SDS011;36654;45.042;38.994;2023-06-14T06:28:08;11.25;;;9.38;;
50683;SDS011;36654;45.042;38.994;2023-06-14T06:30:34;12.93;;;7.60;;
50683;SDS011;36654;45.042;38.994;2023-06-14T06:33:01;11.73;;;7.75;;
50683;SDS011;36654;45.042;38.994;2023-06-14T06:35:27;14.63;;;8.40;;
50683;SDS011;36654;45.042;38.994;2023-06-14T06:37:52;11.05;;;7.40;;
50683;SDS011;36654;45.042;38.994;2023-06-14T06:40:18;12.30;;;8.50;;
50683;SDS011;36654;45.042;38.994;2023-06-14T06:42:44;15.82;;;8.18;;
50683;SDS011;36654;45.042;38.994;2023-06-14T06:45:09;10.60;;;7.35;;
50683;SDS011;36654;45.042;38.994;2023-06-14T06:47:35;11.57;;;8.15;;
50683;SDS011;36654;45.042;38.994;2023-06-14T06:50:00;10.88;;;8.48;;
50683;SDS011;36654;45.042;38.994;2023-06-14T06:52:26;14.15;;;8.60;;
50683;SDS011;36654;45.042;38.994;2023-06-14T06:54:52;11.15;;;8.02;;
50683;SDS011;36654;45.042;38.994;2023-06-14T06:57:20;11.23;;;7.80;;
50683;SDS011;36654;45.042;38.994;2023-06-14T06:59:47;13.45;;;8.20;;
50683;SDS011;36654;45.042;38.994;2023-06-14T07:02:13;12.50;;;8.85;;
50683;SDS011;36654;45.042;38.994;2023-06-14T07:04:39;14.32;;;8.30;;
50683;SDS011;36654;45.042;38.994;2023-06-14T07:07:05;13.52;;;7.32;;
50683;SDS011;36654;45.042;38.994;2023-06-14T07:09:30;13.45;;;6.63;;
50683;SDS011;36654;45.042;38.994;2023-06-14T07:11:56;11.25;;;7.60;;
50683;SDS011;36654;45.042;38.994;2023-06-14T07:14:22;9.90;;;7.32;;
50683;SDS011;36654;45.042;38.994;2023-06-14T07:16:48;9.30;;;6.93;;
50683;SDS011;36654;45.042;38.994;2023-06-14T07:19:14;12.35;;;8.18;;
50683;SDS011;36654;45.042;38.994;2023-06-14T07:24:08;29.10;;;20.17;;
50683;SDS011;36654;45.042;38.994;2023-06-14T07:26:33;11.38;;;6.75;;
50683;SDS011;36654;45.042;38.994;2023-06-14T07:29:00;8.70;;;6.80;;
50683;SDS011;36654;45.042;38.994;2023-06-14T07:31:26;12.07;;;6.40;;
50683;SDS011;36654;45.042;38.994;2023-06-14T07:33:52;12.60;;;7.72;;
50683;SDS011;36654;45.042;38.994;2023-06-14T07:36:18;12.02;;;7.53;;
50683;SDS011;36654;45.042;38.994;2023-06-14T07:38:43;12.13;;;7.97;;
50683;SDS011;36654;45.042;38.994;2023-06-14T07:41:10;11.50;;;7.50;;
50683;SDS011;36654;45.042;38.994;2023-06-14T07:43:35;13.50;;;9.50;;
50683;SDS011;36654;45.042;38.994;2023-06-14T07:46:01;13.50;;;5.88;;
50683;SDS011;36654;45.042;38.994;2023-06-14T07:48:27;7.78;;;5.70;;
50683;SDS011;36654;45.042;38.994;2023-06-14T07:50:53;8.55;;;6.35;;
50683;SDS011;36654;45.042;38.994;2023-06-14T07:53:18;8.20;;;5.55;;
50683;SDS011;36654;45.042;38.994;2023-06-14T07:55:44;6.43;;;5.22;;
50683;SDS011;36654;45.042;38.994;2023-06-14T07:58:12;7.35;;;4.78;;
50683;SDS011;36654;45.042;38.994;2023-06-14T08:00:38;8.27;;;5.50;;
50683;SDS011;36654;45.042;38.994;2023-06-14T08:03:03;9.20;;;5.85;;
50683;SDS011;36654;45.042;38.994;2023-06-14T08:05:29;10.68;;;5.70;;
50683;SDS011;36654;45.042;38.994;2023-06-14T08:07:55;9.02;;;5.30;;
50683;SDS011;36654;45.042;38.994;2023-06-14T08:10:21;8.93;;;5.55;;
50683;SDS011;36654;45.042;38.994;2023-06-14T08:12:49;8.02;;;5.93;;
50683;SDS011;36654;45.042;38.994;2023-06-14T08:15:17;7.55;;;5.70;;
50683;SDS011;36654;45.042;38.994;2023-06-14T08:17:43;8.18;;;5.28;;
50683;SDS011;36654;45.042;38.994;2023-06-14T08:20:12;10.52;;;5.43;;
50683;SDS011;36654;45.042;38.994;2023-06-14T08:22:38;8.77;;;6.22;;
50683;SDS011;36654;45.042;38.994;2023-06-14T08:25:07;8.93;;;5.45;;
50683;SDS011;36654;45.042;38.994;2023-06-14T08:27:33;9.45;;;6.15;;
50683;SDS011;36654;45.042;38.994;2023-06-14T08:29:59;11.38;;;7.18;;
50683;SDS011;36654;45.042;38.994;2023-06-14T08:32:25;12.73;;;5.95;;
50683;SDS011;36654;45.042;38.994;2023-06-14T08:34:54;9.60;;;5.25;;
50683;SDS011;36654;45.042;38.994;2023-06-14T08:37:38;8.57;;;5.65;;
50683;SDS011;36654;45.042;38.994;2023-06-14T08:42:37;11.13;;;5.82;;
50683;SDS011;36654;45.042;38.994;2023-06-14T08:45:07;9.13;;;6.25;;
50683;SDS011;36654;45.042;38.994;2023-06-14T08:47:33;9.77;;;5.68;;
50683;SDS011;36654;45.042;38.994;2023-06-14T08:50:02;9.40;;;5.53;;
50683;SDS011;36654;45.042;38.994;2023-06-14T08:52:30;10.18;;;5.60;;
50683;SDS011;36654;45.042;38.994;2023-06-14T08:55:05;7.72;;;5.55;;
50683;SDS011;36654;45.042;38.994;2023-06-14T08:57:37;9.02;;;5.88;;
50683;SDS011;36654;45.042;38.994;2023-06-14T09:00:05;12.93;;;7.05;;
50683;SDS011;36654;45.042;38.994;2023-06-14T09:02:37;8.52;;;6.30;;
50683;SDS011;36654;45.042;38.994;2023-06-14T09:05:12;11.50;;;5.63;;
50683;SDS011;36654;45.042;38.994;2023-06-14T09:07:43;9.80;;;5.25;;
50683;SDS011;36654;45.042;38.994;2023-06-14T09:10:15;9.40;;;4.97;;
50683;SDS011;36654;45.042;38.994;2023-06-14T09:12:41;8.07;;;5.28;;
50683;SDS011;36654;45.042;38.994;2023-06-14T09:15:10;7.55;;;5.30;;
50683;SDS011;36654;45.042;38.994;2023-06-14T09:17:36;7.85;;;4.82;;
50683;SDS011;36654;45.042;38.994;2023-06-14T09:20:02;8.07;;;4.88;;
50683;SDS011;36654;45.042;38.994;2023-06-14T09:22:31;6.15;;;4.30;;
50683;SDS011;36654;45.042;38.994;2023-06-14T09:24:59;10.55;;;4.97;;
50683;SDS011;36654;45.042;38.994;2023-06-14T09:27:25;9.95;;;5.18;;
50683;SDS011;36654;45.042;38.994;2023-06-14T09:29:52;6.40;;;4.90;;
50683;SDS011;36654;45.042;38.994;2023-06-14T09:32:18;7.28;;;4.72;;
50683;SDS011;36654;45.042;38.994;2023-06-14T09:34:44;6.03;;;4.90;;
50683;SDS011;36654;45.042;38.994;2023-06-14T09:37:11;5.30;;;4.53;;
50683;SDS011;36654;45.042;38.994;2023-06-14T09:39:49;9.63;;;5.97;;
50683;SDS011;36654;45.042;38.994;2023-06-14T09:42:17;7.55;;;4.55;;
50683;SDS011;36654;45.042;38.994;2023-06-14T09:44:53;8.15;;;5.07;;
50683;SDS011;36654;45.042;38.994;2023-06-14T09:47:20;7.35;;;4.30;;
50683;SDS011;36654;45.042;38.994;2023-06-14T09:52:15;9.00;;;6.07;;
50683;SDS011;36654;45.042;38.994;2023-06-14T09:54:45;6.38;;;4.82;;
50683;SDS011;36654;45.042;38.994;2023-06-14T09:57:15;6.63;;;4.45;;
50683;SDS011;36654;45.042;38.994;2023-06-14T09:59:48;7.75;;;5.47;;
50683;SDS011;36654;45.042;38.994;2023-06-14T10:02:25;5.78;;;4.63;;
50683;SDS011;36654;45.042;38.994;2023-06-14T10:05:02;7.82;;;4.35;;
50683;SDS011;36654;45.042;38.994;2023-06-14T10:07:33;9.23;;;4.78;;
50683;SDS011;36654;45.042;38.994;2023-06-14T10:10:06;9.30;;;5.25;;
50683;SDS011;36654;45.042;38.994;2023-06-14T10:12:36;8.23;;;4.88;;
50683;SDS011;36654;45.042;38.994;2023-06-14T10:15:03;5.70;;;4.22;;
50683;SDS011;36654;45.042;38.994;2023-06-14T10:17:43;7.15;;;4.40;;
50683;SDS011;36654;45.042;38.994;2023-06-14T10:20:18;4.50;;;3.75;;
50683;SDS011;36654;45.042;38.994;2023-06-14T10:22:58;8.07;;;4.13;;
50683;SDS011;36654;45.042;38.994;2023-06-14T10:25:29;5.53;;;4.00;;
50683;SDS011;36654;45.042;38.994;2023-06-14T10:28:14;6.10;;;4.18;;
50683;SDS011;36654;45.042;38.994;2023-06-14T10:33:32;6.95;;;4.45;;
50683;SDS011;36654;45.042;38.994;2023-06-14T10:39:07;5.38;;;4.88;;
50683;SDS011;36654;45.042;38.994;2023-06-14T10:41:39;6.32;;;4.35;;
50683;SDS011;36654;45.042;38.994;2023-06-14T10:46:40;9.38;;;6.05;;
50683;SDS011;36654;45.042;38.994;2023-06-14T10:49:11;7.32;;;5.47;;
50683;SDS011;36654;45.042;38.994;2023-06-14T10:51:41;7.75;;;4.47;;
50683;SDS011;36654;45.042;38.994;2023-06-14T10:54:15;9.18;;;4.25;;
50683;SDS011;36654;45.042;38.994;2023-06-14T10:56:47;8.27;;;5.20;;
50683;SDS011;36654;45.042;38.994;2023-06-14T10:59:17;6.65;;;4.88;;
50683;SDS011;36654;45.042;38.994;2023-06-14T11:02:07;6.03;;;4.32;;
50683;SDS011;36654;45.042;38.994;2023-06-14T11:05:03;5.93;;;4.00;;
50683;SDS011;36654;45.042;38.994;2023-06-14T11:13:07;7.38;;;4.47;;
50683;SDS011;36654;45.042;38.994;2023-06-14T11:15:34;7.55;;;4.20;;
50683;SDS011;36654;45.042;38.994;2023-06-14T11:18:11;6.15;;;4.60;;
50683;SDS011;36654;45.042;38.994;2023-06-14T11:20:41;8.00;;;4.90;;
50683;SDS011;36654;45.042;38.994;2023-06-14T11:23:07;8.15;;;5.97;;
50683;SDS011;36654;45.042;38.994;2023-06-14T11:25:33;9.45;;;5.40;;
50683;SDS011;36654;45.042;38.994;2023-06-14T11:27:58;7.60;;;4.28;;
50683;SDS011;36654;45.042;38.994;2023-06-14T11:30:25;8.18;;;4.45;;
50683;SDS011;36654;45.042;38.994;2023-06-14T11:32:51;6.18;;;4.18;;
50683;SDS011;36654;45.042;38.994;2023-06-14T11:35:19;7.88;;;4.22;;
50683;SDS011;36654;45.042;38.994;2023-06-14T11:37:48;9.02;;;4.30;;
50683;SDS011;36654;45.042;38.994;2023-06-14T11:40:17;7.90;;;4.72;;
50683;SDS011;36654;45.042;38.994;2023-06-14T11:42:43;7.45;;;4.07;;
50683;SDS011;36654;45.042;38.994;2023-06-14T11:45:09;5.97;;;4.53;;
50683;SDS011;36654;45.042;38.994;2023-06-14T11:47:37;9.77;;;4.28;;
50683;SDS011;36654;45.042;38.994;2023-06-14T11:50:04;9.05;;;4.80;;
50683;SDS011;36654;45.042;38.994;2023-06-14T11:52:34;8.38;;;4.40;;
50683;SDS011;36654;45.042;38.994;2023-06-14T11:55:00;10.95;;;5.43;;
50683;SDS011;36654;45.042;38.994;2023-06-14T11:57:29;7.05;;;4.90;;
50683;SDS011;36654;45.042;38.994;2023-06-14T11:59:55;9.57;;;4.97;;
50683;SDS011;36654;45.042;38.994;2023-06-14T12:02:21;9.15;;;4.50;;
50683;SDS011;36654;45.042;38.994;2023-06-14T12:04:47;6.82;;;4.75;;
50683;SDS011;36654;45.042;38.994;2023-06-14T12:07:17;10.18;;;5.32;;
50683;SDS011;36654;45.042;38.994;2023-06-14T12:12:25;5.32;;;4.70;;
50683;SDS011;36654;45.042;38.994;2023-06-14T12:14:52;5.25;;;4.18;;
50683;SDS011;36654;45.042;38.994;2023-06-14T12:17:18;6.35;;;4.50;;
50683;SDS011;36654;45.042;38.994;2023-06-14T12:19:45;7.07;;;4.53;;
50683;SDS011;36654;45.042;38.994;2023-06-14T12:22:14;6.43;;;4.25;;
50683;SDS011;36654;45.042;38.994;2023-06-14T12:24:45;12.95;;;5.47;;
50683;SDS011;36654;45.042;38.994;2023-06-14T12:27:11;10.65;;;5.60;;
50683;SDS011;36654;45.042;38.994;2023-06-14T12:29:41;7.88;;;5.28;;
50683;SDS011;36654;45.042;38.994;2023-06-14T12:32:11;7.35;;;4.72;;
50683;SDS011;36654;45.042;38.994;2023-06-14T12:34:36;7.97;;;4.55;;
50683;SDS011;36654;45.042;38.994;2023-06-14T12:37:02;10.20;;;5.18;;
50683;SDS011;36654;45.042;38.994;2023-06-14T12:39:31;8.05;;;4.85;;
50683;SDS011;36654;45.042;38.994;2023-06-14T12:41:59;8.75;;;5.30;;
50683;SDS011;36654;45.042;38.994;2023-06-14T12:44:25;8.40;;;5.20;;
50683;SDS011;36654;45.042;38.994;2023-06-14T12:46:51;10.50;;;6.32;;
50683;SDS011;36654;45.042;38.994;2023-06-14T12:51:45;6.13;;;5.18;;
50683;SDS011;36654;45.042;38.994;2023-06-14T12:54:10;7.15;;;5.03;;
50683;SDS011;36654;45.042;38.994;2023-06-14T12:56:37;6.63;;;4.45;;
50683;SDS011;36654;45.042;38.994;2023-06-14T12:59:02;6.82;;;4.68;;
50683;SDS011;36654;45.042;38.994;2023-06-14T13:01:28;7.32;;;4.85;;
50683;SDS011;36654;45.042;38.994;2023-06-14T13:03:54;8.32;;;4.70;;
50683;SDS011;36654;45.042;38.994;2023-06-14T13:06:22;8.32;;;4.93;;
50683;SDS011;36654;45.042;38.994;2023-06-14T13:08:49;8.27;;;5.10;;
50683;SDS011;36654;45.042;38.994;2023-06-14T13:11:15;9.05;;;5.65;;
50683;SDS011;36654;45.042;38.994;2023-06-14T13:13:41;9.73;;;5.68;;
50683;SDS011;36654;45.042;38.994;2023-06-14T13:16:07;11.45;;;6.22;;
50683;SDS011;36654;45.042;38.994;2023-06-14T13:18:33;11.80;;;6.22;;
50683;SDS011;36654;45.042;38.994;2023-06-14T13:20:59;11.50;;;6.32;;
50683;SDS011;36654;45.042;38.994;2023-06-14T13:23:24;8.48;;;6.13;;
50683;SDS011;36654;45.042;38.994;2023-06-14T13:25:50;9.13;;;5.95;;
50683;SDS011;36654;45.042;38.994;2023-06-14T13:28:16;10.00;;;5.90;;
50683;SDS011;36654;45.042;38.994;2023-06-14T13:30:42;9.13;;;6.18;;
50683;SDS011;36654;45.042;38.994;2023-06-14T13:33:07;10.27;;;6.18;;
50683;SDS011;36654;45.042;38.994;2023-06-14T13:35:33;7.55;;;6.00;;
50683;SDS011;36654;45.042;38.994;2023-06-14T13:37:59;8.55;;;6.50;;
50683;SDS011;36654;45.042;38.994;2023-06-14T13:40:25;10.50;;;6.15;;
50683;SDS011;36654;45.042;38.994;2023-06-14T13:42:51;8.18;;;5.45;;
50683;SDS011;36654;45.042;38.994;2023-06-14T13:45:17;8.38;;;4.82;;
50683;SDS011;36654;45.042;38.994;2023-06-14T13:47:42;8.93;;;5.25;;
50683;SDS011;36654;45.042;38.994;2023-06-14T13:50:11;7.47;;;5.90;;
50683;SDS011;36654;45.042;38.994;2023-06-14T13:52:37;9.13;;;5.82;;
50683;SDS011;36654;45.042;38.994;2023-06-14T13:55:03;10.27;;;6.82;;
50683;SDS011;36654;45.042;38.994;2023-06-14T13:57:30;9.98;;;6.05;;
50683;SDS011;36654;45.042;38.994;2023-06-14T13:59:55;13.23;;;6.90;;
50683;SDS011;36654;45.042;38.994;2023-06-14T14:02:26;12.32;;;6.60;;
50683;SDS011;36654;45.042;38.994;2023-06-14T14:04:53;13.35;;;6.90;;
50683;SDS011;36654;45.042;38.994;2023-06-14T14:07:20;14.82;;;7.35;;
50683;SDS011;36654;45.042;38.994;2023-06-14T14:09:47;10.68;;;7.50;;
50683;SDS011;36654;45.042;38.994;2023-06-14T14:12:13;16.60;;;7.68;;
50683;SDS011;36654;45.042;38.994;2023-06-14T14:14:42;10.07;;;7.05;;
50683;SDS011;36654;45.042;38.994;2023-06-14T14:17:07;14.85;;;7.90;;
50683;SDS011;36654;45.042;38.994;2023-06-14T14:19:33;9.43;;;6.95;;
50683;SDS011;36654;45.042;38.994;2023-06-14T14:21:59;14.13;;;6.55;;
50683;SDS011;36654;45.042;38.994;2023-06-14T14:24:24;12.45;;;5.60;;
50683;SDS011;36654;45.042;38.994;2023-06-14T14:26:51;10.32;;;5.78;;
50683;SDS011;36654;45.042;38.994;2023-06-14T14:29:18;7.15;;;4.72;;
50683;SDS011;36654;45.042;38.994;2023-06-14T14:31:46;7.05;;;5.50;;
50683;SDS011;36654;45.042;38.994;2023-06-14T14:34:14;10.63;;;5.13;;
50683;SDS011;36654;45.042;38.994;2023-06-14T14:36:40;9.15;;;5.32;;
50683;SDS011;36654;45.042;38.994;2023-06-14T14:39:07;7.63;;;5.07;;
50683;SDS011;36654;45.042;38.994;2023-06-14T14:41:33;7.70;;;5.65;;
50683;SDS011;36654;45.042;38.994;2023-06-14T14:43:59;15.63;;;6.43;;
50683;SDS011;36654;45.042;38.994;2023-06-14T14:46:26;8.95;;;6.50;;
50683;SDS011;36654;45.042;38.994;2023-06-14T14:48:53;10.48;;;5.60;;
50683;SDS011;36654;45.042;38.994;2023-06-14T14:51:18;9.73;;;5.97;;
50683;SDS011;36654;45.042;38.994;2023-06-14T14:53:44;10.18;;;5.30;;
50683;SDS011;36654;45.042;38.994;2023-06-14T14:56:31;9.23;;;6.70;;
50683;SDS011;36654;45.042;38.994;2023-06-14T14:58:56;16.52;;;5.90;;
50683;SDS011;36654;45.042;38.994;2023-06-14T15:01:22;11.13;;;5.95;;
50683;SDS011;36654;45.042;38.994;2023-06-14T15:03:48;9.80;;;5.72;;
50683;SDS011;36654;45.042;38.994;2023-06-14T15:06:13;10.10;;;5.80;;